sensor_id;sensor_type;location;lat;lon;timestamp;P1;durP1;ratioP1;P2;durP2;ratioP2
38312;SDS011;24114;52.260;6.714;2023-01-05T00:01:31;18.85;;;4.32;;
38312;SDS011;24114;52.260;6.714;2023-01-05T00:03:59;21.75;;;4.40;;
38312;SDS011;24114;52.260;6.714;2023-01-05T00:06:27;17.42;;;4.55;;
38312;SDS011;24114;52.260;6.714;2023-01-05T00:08:55;17.38;;;4.35;;
38312;SDS011;24114;52.260;6.714;2023-01-05T00:11:23;20.05;;;4.85;;
38312;SDS011;24114;52.260;6.714;2023-01-05T00:14:11;22.00;;;3.95;;
38312;SDS011;24114;52.260;6.714;2023-01-05T00:16:56;20.48;;;4.68;;
38312;SDS011;24114;52.260;6.714;2023-01-05T00:19:42;22.38;;;3.83;;
38312;SDS011;24114;52.260;6.714;2023-01-05T00:22:27;18.67;;;3.80;;
38312;SDS011;24114;52.260;6.714;2023-01-05T00:25:00;17.13;;;3.78;;
38312;SDS011;24114;52.260;6.714;2023-01-05T00:27:37;21.05;;;3.88;;
38312;SDS011;24114;52.260;6.714;2023-01-05T00:30:07;17.90;;;3.40;;
38312;SDS011;24114;52.260;6.714;2023-01-05T00:32:36;18.52;;;5.10;;
38312;SDS011;24114;52.260;6.714;2023-01-05T00:35:04;18.98;;;4.03;;
38312;SDS011;24114;52.260;6.714;2023-01-05T00:37:32;24.58;;;4.03;;
38312;SDS011;24114;52.260;6.714;2023-01-05T00:40:01;19.08;;;3.70;;
38312;SDS011;24114;52.260;6.714;2023-01-05T00:42:29;24.10;;;5.63;;
38312;SDS011;24114;52.260;6.714;2023-01-05T00:44:57;16.75;;;3.17;;
38312;SDS011;24114;52.260;6.714;2023-01-05T00:47:26;18.50;;;4.13;;
38312;SDS011;24114;52.260;6.714;2023-01-05T00:49:53;19.73;;;3.90;;
38312;SDS011;24114;52.260;6.714;2023-01-05T00:52:21;22.63;;;4.05;;
38312;SDS011;24114;52.260;6.714;2023-01-05T00:54:49;21.48;;;4.00;;
38312;SDS011;24114;52.260;6.714;2023-01-05T00:59:44;24.20;;;4.70;;
38312;SDS011;24114;52.260;6.714;2023-01-05T01:02:12;21.60;;;4.57;;
38312;SDS011;24114;52.260;6.714;2023-01-05T01:04:41;21.05;;;4.35;;
38312;SDS011;24114;52.260;6.714;2023-01-05T01:07:09;18.17;;;4.13;;
38312;SDS011;24114;52.260;6.714;2023-01-05T01:09:37;20.30;;;4.10;;
38312;SDS011;24114;52.260;6.714;2023-01-05T01:12:06;17.73;;;4.00;;
38312;SDS011;24114;52.260;6.714;2023-01-05T01:14:34;16.73;;;3.92;;
38312;SDS011;24114;52.260;6.714;2023-01-05T01:17:01;18.15;;;3.80;;
38312;SDS011;24114;52.260;6.714;2023-01-05T01:19:29;16.77;;;3.55;;
38312;SDS011;24114;52.260;6.714;2023-01-05T01:24:26;21.05;;;3.75;;
38312;SDS011;24114;52.260;6.714;2023-01-05T01:26:55;18.50;;;3.63;;
38312;SDS011;24114;52.260;6.714;2023-01-05T01:29:23;14.38;;;3.30;;
38312;SDS011;24114;52.260;6.714;2023-01-05T01:31:51;18.77;;;3.55;;
38312;SDS011;24114;52.260;6.714;2023-01-05T01:36:47;16.50;;;4.18;;
38312;SDS011;24114;52.260;6.714;2023-01-05T01:39:16;19.15;;;4.15;;
38312;SDS011;24114;52.260;6.714;2023-01-05T01:41:44;17.23;;;4.10;;
38312;SDS011;24114;52.260;6.714;2023-01-05T01:47:22;14.95;;;3.78;;
38312;SDS011;24114;52.260;6.714;2023-01-05T01:49:54;18.00;;;3.40;;
38312;SDS011;24114;52.260;6.714;2023-01-05T01:52:24;16.90;;;3.83;;
38312;SDS011;24114;52.260;6.714;2023-01-05T01:54:54;15.77;;;4.03;;
38312;SDS011;24114;52.260;6.714;2023-01-05T01:57:22;17.17;;;3.00;;
38312;SDS011;24114;52.260;6.714;2023-01-05T01:59:52;14.57;;;3.72;;
38312;SDS011;24114;52.260;6.714;2023-01-05T02:02:20;14.75;;;3.00;;
38312;SDS011;24114;52.260;6.714;2023-01-05T02:04:48;16.38;;;3.53;;
38312;SDS011;24114;52.260;6.714;2023-01-05T02:07:17;17.35;;;3.00;;
38312;SDS011;24114;52.260;6.714;2023-01-05T02:09:45;22.10;;;3.88;;
38312;SDS011;24114;52.260;6.714;2023-01-05T02:12:17;12.88;;;2.65;;
38312;SDS011;24114;52.260;6.714;2023-01-05T02:14:56;13.15;;;3.13;;
38312;SDS011;24114;52.260;6.714;2023-01-05T02:20:14;15.93;;;3.33;;
38312;SDS011;24114;52.260;6.714;2023-01-05T02:23:11;16.45;;;3.45;;
38312;SDS011;24114;52.260;6.714;2023-01-05T02:28:57;16.92;;;3.53;;
38312;SDS011;24114;52.260;6.714;2023-01-05T02:31:37;17.27;;;4.27;;
38312;SDS011;24114;52.260;6.714;2023-01-05T02:34:08;15.60;;;3.00;;
38312;SDS011;24114;52.260;6.714;2023-01-05T02:36:41;18.52;;;4.22;;
38312;SDS011;24114;52.260;6.714;2023-01-05T02:39:15;18.27;;;4.22;;
38312;SDS011;24114;52.260;6.714;2023-01-05T02:41:46;11.30;;;2.72;;
38312;SDS011;24114;52.260;6.714;2023-01-05T02:44:16;17.08;;;3.08;;
38312;SDS011;24114;52.260;6.714;2023-01-05T02:46:46;18.77;;;4.07;;
38312;SDS011;24114;52.260;6.714;2023-01-05T02:49:24;17.90;;;3.45;;
38312;SDS011;24114;52.260;6.714;2023-01-05T02:51:53;13.95;;;3.67;;
38312;SDS011;24114;52.260;6.714;2023-01-05T02:54:23;14.30;;;3.28;;
38312;SDS011;24114;52.260;6.714;2023-01-05T02:56:53;16.98;;;3.08;;
38312;SDS011;24114;52.260;6.714;2023-01-05T02:59:24;12.60;;;3.28;;
38312;SDS011;24114;52.260;6.714;2023-01-05T03:01:57;12.50;;;2.75;;
38312;SDS011;24114;52.260;6.714;2023-01-05T03:04:27;13.80;;;3.28;;
38312;SDS011;24114;52.260;6.714;2023-01-05T03:06:58;14.27;;;2.85;;
38312;SDS011;24114;52.260;6.714;2023-01-05T03:09:28;16.65;;;3.30;;
38312;SDS011;24114;52.260;6.714;2023-01-05T03:12:05;20.75;;;3.38;;
38312;SDS011;24114;52.260;6.714;2023-01-05T03:14:54;13.73;;;3.15;;
38312;SDS011;24114;52.260;6.714;2023-01-05T03:17:27;20.92;;;4.15;;
38312;SDS011;24114;52.260;6.714;2023-01-05T03:19:58;17.83;;;4.05;;
38312;SDS011;24114;52.260;6.714;2023-01-05T03:22:27;15.18;;;3.28;;
38312;SDS011;24114;52.260;6.714;2023-01-05T03:25:14;15.45;;;3.50;;
38312;SDS011;24114;52.260;6.714;2023-01-05T03:28:01;19.63;;;4.53;;
38312;SDS011;24114;52.260;6.714;2023-01-05T03:30:49;23.23;;;4.03;;
38312;SDS011;24114;52.260;6.714;2023-01-05T03:33:42;14.60;;;3.47;;
38312;SDS011;24114;52.260;6.714;2023-01-05T03:36:29;14.48;;;3.15;;
38312;SDS011;24114;52.260;6.714;2023-01-05T03:38:59;22.48;;;3.85;;
38312;SDS011;24114;52.260;6.714;2023-01-05T03:41:28;18.52;;;4.10;;
38312;SDS011;24114;52.260;6.714;2023-01-05T03:43:56;21.50;;;3.90;;
38312;SDS011;24114;52.260;6.714;2023-01-05T03:46:24;17.00;;;3.25;;
38312;SDS011;24114;52.260;6.714;2023-01-05T03:48:53;19.35;;;3.58;;
38312;SDS011;24114;52.260;6.714;2023-01-05T03:51:21;20.83;;;4.20;;
38312;SDS011;24114;52.260;6.714;2023-01-05T03:53:49;14.30;;;4.22;;
38312;SDS011;24114;52.260;6.714;2023-01-05T03:56:16;18.63;;;3.78;;
38312;SDS011;24114;52.260;6.714;2023-01-05T03:58:44;18.92;;;4.50;;
38312;SDS011;24114;52.260;6.714;2023-01-05T04:01:12;19.80;;;3.83;;
38312;SDS011;24114;52.260;6.714;2023-01-05T04:03:40;21.02;;;4.10;;
38312;SDS011;24114;52.260;6.714;2023-01-05T04:06:09;18.50;;;4.53;;
38312;SDS011;24114;52.260;6.714;2023-01-05T04:08:39;18.48;;;4.05;;
38312;SDS011;24114;52.260;6.714;2023-01-05T04:11:11;16.25;;;3.40;;
38312;SDS011;24114;52.260;6.714;2023-01-05T04:13:40;19.92;;;4.10;;
38312;SDS011;24114;52.260;6.714;2023-01-05T04:16:07;19.70;;;3.30;;
38312;SDS011;24114;52.260;6.714;2023-01-05T04:18:35;21.45;;;4.00;;
38312;SDS011;24114;52.260;6.714;2023-01-05T04:21:03;23.95;;;3.97;;
38312;SDS011;24114;52.260;6.714;2023-01-05T04:23:33;21.10;;;4.70;;
38312;SDS011;24114;52.260;6.714;2023-01-05T04:26:01;21.58;;;5.32;;
38312;SDS011;24114;52.260;6.714;2023-01-05T04:28:29;21.17;;;4.30;;
38312;SDS011;24114;52.260;6.714;2023-01-05T04:30:57;20.55;;;4.55;;
38312;SDS011;24114;52.260;6.714;2023-01-05T04:33:25;15.73;;;3.60;;
38312;SDS011;24114;52.260;6.714;2023-01-05T04:35:52;17.15;;;2.70;;
38312;SDS011;24114;52.260;6.714;2023-01-05T04:40:49;18.75;;;3.70;;
38312;SDS011;24114;52.260;6.714;2023-01-05T04:43:18;19.73;;;4.38;;
38312;SDS011;24114;52.260;6.714;2023-01-05T04:48:14;18.67;;;3.00;;
38312;SDS011;24114;52.260;6.714;2023-01-05T04:50:42;18.63;;;4.32;;
38312;SDS011;24114;52.260;6.714;2023-01-05T04:55:37;22.05;;;4.10;;
38312;SDS011;24114;52.260;6.714;2023-01-05T04:58:06;23.65;;;5.25;;
38312;SDS011;24114;52.260;6.714;2023-01-05T05:00:37;21.13;;;4.20;;
38312;SDS011;24114;52.260;6.714;2023-01-05T05:03:05;21.63;;;4.60;;
38312;SDS011;24114;52.260;6.714;2023-01-05T05:05:33;24.45;;;4.07;;
38312;SDS011;24114;52.260;6.714;2023-01-05T05:08:00;13.85;;;4.00;;
38312;SDS011;24114;52.260;6.714;2023-01-05T05:10:28;24.50;;;4.28;;
38312;SDS011;24114;52.260;6.714;2023-01-05T05:12:56;23.35;;;4.38;;
38312;SDS011;24114;52.260;6.714;2023-01-05T05:15:25;19.92;;;3.45;;
38312;SDS011;24114;52.260;6.714;2023-01-05T05:17:53;21.90;;;3.67;;
38312;SDS011;24114;52.260;6.714;2023-01-05T05:20:21;19.58;;;4.25;;
38312;SDS011;24114;52.260;6.714;2023-01-05T05:22:48;21.98;;;5.07;;
38312;SDS011;24114;52.260;6.714;2023-01-05T05:25:16;22.23;;;4.05;;
38312;SDS011;24114;52.260;6.714;2023-01-05T05:27:44;20.40;;;4.70;;
38312;SDS011;24114;52.260;6.714;2023-01-05T05:32:41;17.52;;;4.20;;
38312;SDS011;24114;52.260;6.714;2023-01-05T05:35:09;16.23;;;4.15;;
38312;SDS011;24114;52.260;6.714;2023-01-05T05:37:37;22.13;;;4.70;;
38312;SDS011;24114;52.260;6.714;2023-01-05T05:40:05;23.80;;;5.30;;
38312;SDS011;24114;52.260;6.714;2023-01-05T05:42:34;18.95;;;3.53;;
38312;SDS011;24114;52.260;6.714;2023-01-05T05:45:01;20.15;;;4.32;;
38312;SDS011;24114;52.260;6.714;2023-01-05T05:49:59;25.95;;;5.60;;
38312;SDS011;24114;52.260;6.714;2023-01-05T05:52:27;20.73;;;4.03;;
38312;SDS011;24114;52.260;6.714;2023-01-05T05:54:54;24.83;;;5.32;;
38312;SDS011;24114;52.260;6.714;2023-01-05T05:57:22;24.83;;;5.30;;
38312;SDS011;24114;52.260;6.714;2023-01-05T05:59:50;22.93;;;5.33;;
38312;SDS011;24114;52.260;6.714;2023-01-05T06:02:17;22.70;;;4.95;;
38312;SDS011;24114;52.260;6.714;2023-01-05T06:04:45;22.73;;;5.18;;
38312;SDS011;24114;52.260;6.714;2023-01-05T06:07:14;27.67;;;5.20;;
38312;SDS011;24114;52.260;6.714;2023-01-05T06:09:42;20.40;;;3.70;;
38312;SDS011;24114;52.260;6.714;2023-01-05T06:12:10;26.42;;;4.40;;
38312;SDS011;24114;52.260;6.714;2023-01-05T06:14:37;24.85;;;5.50;;
38312;SDS011;24114;52.260;6.714;2023-01-05T06:17:05;24.50;;;5.55;;
38312;SDS011;24114;52.260;6.714;2023-01-05T06:19:33;19.75;;;4.88;;
38312;SDS011;24114;52.260;6.714;2023-01-05T06:22:00;22.67;;;5.28;;
38312;SDS011;24114;52.260;6.714;2023-01-05T06:24:29;25.10;;;5.70;;
38312;SDS011;24114;52.260;6.714;2023-01-05T06:26:57;17.65;;;4.40;;
38312;SDS011;24114;52.260;6.714;2023-01-05T06:29:25;20.45;;;5.22;;
38312;SDS011;24114;52.260;6.714;2023-01-05T06:31:53;24.35;;;5.57;;
38312;SDS011;24114;52.260;6.714;2023-01-05T06:34:21;20.88;;;5.03;;
38312;SDS011;24114;52.260;6.714;2023-01-05T06:36:48;19.67;;;4.68;;
38312;SDS011;24114;52.260;6.714;2023-01-05T06:39:16;22.02;;;4.78;;
38312;SDS011;24114;52.260;6.714;2023-01-05T06:41:45;21.17;;;4.73;;
38312;SDS011;24114;52.260;6.714;2023-01-05T06:44:13;19.45;;;4.65;;
38312;SDS011;24114;52.260;6.714;2023-01-05T06:46:41;22.15;;;4.65;;
38312;SDS011;24114;52.260;6.714;2023-01-05T06:49:09;21.43;;;5.13;;
38312;SDS011;24114;52.260;6.714;2023-01-05T06:51:37;19.20;;;4.40;;
38312;SDS011;24114;52.260;6.714;2023-01-05T06:54:05;19.23;;;4.60;;
38312;SDS011;24114;52.260;6.714;2023-01-05T06:56:33;17.98;;;4.43;;
38312;SDS011;24114;52.260;6.714;2023-01-05T06:59:02;14.38;;;3.08;;
38312;SDS011;24114;52.260;6.714;2023-01-05T07:01:30;18.38;;;4.13;;
38312;SDS011;24114;52.260;6.714;2023-01-05T07:03:58;18.83;;;4.32;;
38312;SDS011;24114;52.260;6.714;2023-01-05T07:06:26;17.90;;;4.55;;
38312;SDS011;24114;52.260;6.714;2023-01-05T07:08:53;21.45;;;3.88;;
38312;SDS011;24114;52.260;6.714;2023-01-05T07:18:45;20.13;;;3.95;;
38312;SDS011;24114;52.260;6.714;2023-01-05T07:21:13;22.05;;;4.03;;
38312;SDS011;24114;52.260;6.714;2023-01-05T07:23:41;14.68;;;3.50;;
38312;SDS011;24114;52.260;6.714;2023-01-05T07:26:09;18.33;;;4.20;;
38312;SDS011;24114;52.260;6.714;2023-01-05T07:28:37;20.92;;;4.50;;
38312;SDS011;24114;52.260;6.714;2023-01-05T07:31:05;18.40;;;4.78;;
38312;SDS011;24114;52.260;6.714;2023-01-05T07:33:35;21.30;;;4.10;;
38312;SDS011;24114;52.260;6.714;2023-01-05T07:58:22;16.27;;;3.67;;
38312;SDS011;24114;52.260;6.714;2023-01-05T08:00:50;19.10;;;4.03;;
38312;SDS011;24114;52.260;6.714;2023-01-05T08:03:17;17.40;;;3.25;;
38312;SDS011;24114;52.260;6.714;2023-01-05T08:10:49;18.00;;;3.67;;
38312;SDS011;24114;52.260;6.714;2023-01-05T08:13:17;18.95;;;4.75;;
38312;SDS011;24114;52.260;6.714;2023-01-05T08:18:30;17.52;;;3.80;;
38312;SDS011;24114;52.260;6.714;2023-01-05T08:20:58;19.88;;;4.10;;
38312;SDS011;24114;52.260;6.714;2023-01-05T08:23:31;17.02;;;3.97;;
38312;SDS011;24114;52.260;6.714;2023-01-05T08:26:02;18.73;;;4.78;;
38312;SDS011;24114;52.260;6.714;2023-01-05T08:28:30;19.95;;;4.88;;
38312;SDS011;24114;52.260;6.714;2023-01-05T08:31:01;16.67;;;3.72;;
38312;SDS011;24114;52.260;6.714;2023-01-05T08:35:57;18.88;;;3.67;;
38312;SDS011;24114;52.260;6.714;2023-01-05T08:38:24;21.35;;;4.93;;
38312;SDS011;24114;52.260;6.714;2023-01-05T08:40:56;20.63;;;4.18;;
38312;SDS011;24114;52.260;6.714;2023-01-05T08:43:24;21.48;;;5.10;;
38312;SDS011;24114;52.260;6.714;2023-01-05T08:45:52;19.00;;;4.95;;
38312;SDS011;24114;52.260;6.714;2023-01-05T08:48:20;24.15;;;5.47;;
38312;SDS011;24114;52.260;6.714;2023-01-05T08:50:48;23.70;;;4.10;;
38312;SDS011;24114;52.260;6.714;2023-01-05T08:53:16;22.23;;;4.43;;
38312;SDS011;24114;52.260;6.714;2023-01-05T08:55:44;27.60;;;5.95;;
38312;SDS011;24114;52.260;6.714;2023-01-05T08:58:13;22.13;;;5.32;;
38312;SDS011;24114;52.260;6.714;2023-01-05T09:00:40;19.52;;;4.72;;
38312;SDS011;24114;52.260;6.714;2023-01-05T09:03:08;19.67;;;4.72;;
38312;SDS011;24114;52.260;6.714;2023-01-05T09:05:36;22.17;;;5.80;;
38312;SDS011;24114;52.260;6.714;2023-01-05T09:08:04;21.08;;;5.65;;
38312;SDS011;24114;52.260;6.714;2023-01-05T09:10:31;20.02;;;5.40;;
38312;SDS011;24114;52.260;6.714;2023-01-05T09:12:59;17.45;;;4.25;;
38312;SDS011;24114;52.260;6.714;2023-01-05T09:15:28;18.92;;;4.38;;
38312;SDS011;24114;52.260;6.714;2023-01-05T09:17:56;19.38;;;4.57;;
38312;SDS011;24114;52.260;6.714;2023-01-05T09:20:24;19.85;;;5.30;;
38312;SDS011;24114;52.260;6.714;2023-01-05T09:22:51;20.75;;;5.05;;
38312;SDS011;24114;52.260;6.714;2023-01-05T09:25:19;17.95;;;4.30;;
38312;SDS011;24114;52.260;6.714;2023-01-05T09:27:47;23.77;;;5.07;;
38312;SDS011;24114;52.260;6.714;2023-01-05T09:30:14;22.38;;;5.28;;
38312;SDS011;24114;52.260;6.714;2023-01-05T09:32:44;25.02;;;4.78;;
38312;SDS011;24114;52.260;6.714;2023-01-05T09:35:11;27.23;;;5.13;;
38312;SDS011;24114;52.260;6.714;2023-01-05T09:37:39;16.73;;;3.92;;
38312;SDS011;24114;52.260;6.714;2023-01-05T09:40:07;20.25;;;4.45;;
38312;SDS011;24114;52.260;6.714;2023-01-05T09:42:36;20.45;;;4.63;;
38312;SDS011;24114;52.260;6.714;2023-01-05T09:45:09;22.88;;;5.35;;
38312;SDS011;24114;52.260;6.714;2023-01-05T09:47:38;18.85;;;4.13;;
38312;SDS011;24114;52.260;6.714;2023-01-05T09:50:12;16.00;;;4.95;;
38312;SDS011;24114;52.260;6.714;2023-01-05T09:52:44;18.83;;;4.78;;
38312;SDS011;24114;52.260;6.714;2023-01-05T09:55:13;18.63;;;4.78;;
38312;SDS011;24114;52.260;6.714;2023-01-05T09:57:43;21.23;;;4.45;;
38312;SDS011;24114;52.260;6.714;2023-01-05T10:00:16;14.70;;;4.18;;
38312;SDS011;24114;52.260;6.714;2023-01-05T10:02:45;17.77;;;4.20;;
38312;SDS011;24114;52.260;6.714;2023-01-05T10:05:17;20.60;;;5.28;;
38312;SDS011;24114;52.260;6.714;2023-01-05T10:07:46;19.30;;;5.40;;
38312;SDS011;24114;52.260;6.714;2023-01-05T10:10:20;20.25;;;4.55;;
38312;SDS011;24114;52.260;6.714;2023-01-05T10:12:56;17.15;;;5.05;;
38312;SDS011;24114;52.260;6.714;2023-01-05T10:15:38;14.85;;;4.82;;
38312;SDS011;24114;52.260;6.714;2023-01-05T10:18:09;23.95;;;6.53;;
38312;SDS011;24114;52.260;6.714;2023-01-05T10:20:42;19.02;;;5.45;;
38312;SDS011;24114;52.260;6.714;2023-01-05T10:23:15;14.45;;;3.53;;
38312;SDS011;24114;52.260;6.714;2023-01-05T10:25:57;22.00;;;3.97;;
38312;SDS011;24114;52.260;6.714;2023-01-05T10:28:31;19.23;;;5.60;;
38312;SDS011;24114;52.260;6.714;2023-01-05T10:31:01;19.60;;;5.55;;
38312;SDS011;24114;52.260;6.714;2023-01-05T10:33:35;19.17;;;5.15;;
38312;SDS011;24114;52.260;6.714;2023-01-05T10:36:22;15.57;;;4.70;;
38312;SDS011;24114;52.260;6.714;2023-01-05T10:39:21;21.80;;;4.70;;
38312;SDS011;24114;52.260;6.714;2023-01-05T10:41:55;24.23;;;5.80;;
38312;SDS011;24114;52.260;6.714;2023-01-05T10:47:19;29.45;;;5.95;;
38312;SDS011;24114;52.260;6.714;2023-01-05T10:49:48;20.52;;;6.05;;
38312;SDS011;24114;52.260;6.714;2023-01-05T10:52:18;19.38;;;5.30;;
38312;SDS011;24114;52.260;6.714;2023-01-05T10:54:47;20.63;;;5.05;;
38312;SDS011;24114;52.260;6.714;2023-01-05T10:57:29;22.73;;;5.18;;
38312;SDS011;24114;52.260;6.714;2023-01-05T11:00:04;20.52;;;5.97;;
38312;SDS011;24114;52.260;6.714;2023-01-05T11:02:37;16.55;;;4.57;;
38312;SDS011;24114;52.260;6.714;2023-01-05T11:05:22;18.95;;;4.97;;
38312;SDS011;24114;52.260;6.714;2023-01-05T11:07:53;22.95;;;5.47;;
38312;SDS011;24114;52.260;6.714;2023-01-05T11:10:23;19.75;;;4.70;;
38312;SDS011;24114;52.260;6.714;2023-01-05T11:12:57;20.00;;;5.63;;
38312;SDS011;24114;52.260;6.714;2023-01-05T11:15:29;24.60;;;5.10;;
38312;SDS011;24114;52.260;6.714;2023-01-05T11:17:57;21.25;;;4.85;;
38312;SDS011;24114;52.260;6.714;2023-01-05T11:20:26;17.45;;;4.53;;
38312;SDS011;24114;52.260;6.714;2023-01-05T11:22:56;20.55;;;5.70;;
38312;SDS011;24114;52.260;6.714;2023-01-05T11:25:26;15.30;;;4.57;;
38312;SDS011;24114;52.260;6.714;2023-01-05T11:28:11;19.70;;;5.28;;
38312;SDS011;24114;52.260;6.714;2023-01-05T11:30:44;25.02;;;9.07;;
38312;SDS011;24114;52.260;6.714;2023-01-05T11:33:22;25.48;;;9.80;;
38312;SDS011;24114;52.260;6.714;2023-01-05T11:35:51;19.15;;;6.88;;
38312;SDS011;24114;52.260;6.714;2023-01-05T11:38:21;23.25;;;7.03;;
38312;SDS011;24114;52.260;6.714;2023-01-05T11:40:50;20.55;;;6.28;;
38312;SDS011;24114;52.260;6.714;2023-01-05T11:43:19;21.58;;;5.85;;
38312;SDS011;24114;52.260;6.714;2023-01-05T11:45:48;22.55;;;6.28;;
38312;SDS011;24114;52.260;6.714;2023-01-05T11:48:18;16.52;;;4.82;;
38312;SDS011;24114;52.260;6.714;2023-01-05T11:50:48;20.80;;;5.57;;
38312;SDS011;24114;52.260;6.714;2023-01-05T11:53:22;19.27;;;5.05;;
38312;SDS011;24114;52.260;6.714;2023-01-05T11:55:58;19.23;;;5.45;;
38312;SDS011;24114;52.260;6.714;2023-01-05T11:58:30;18.25;;;4.88;;
38312;SDS011;24114;52.260;6.714;2023-01-05T12:01:07;17.13;;;4.85;;
38312;SDS011;24114;52.260;6.714;2023-01-05T12:03:56;22.98;;;5.60;;
38312;SDS011;24114;52.260;6.714;2023-01-05T12:06:28;19.02;;;5.28;;
38312;SDS011;24114;52.260;6.714;2023-01-05T12:09:17;21.95;;;4.95;;
38312;SDS011;24114;52.260;6.714;2023-01-05T12:12:01;21.00;;;5.63;;
38312;SDS011;24114;52.260;6.714;2023-01-05T12:14:43;21.83;;;5.45;;
38312;SDS011;24114;52.260;6.714;2023-01-05T12:17:22;23.80;;;5.55;;
38312;SDS011;24114;52.260;6.714;2023-01-05T12:20:12;16.00;;;4.47;;
38312;SDS011;24114;52.260;6.714;2023-01-05T12:23:18;23.63;;;6.35;;
38312;SDS011;24114;52.260;6.714;2023-01-05T12:25:57;23.33;;;5.25;;
38312;SDS011;24114;52.260;6.714;2023-01-05T12:28:32;22.60;;;5.05;;
38312;SDS011;24114;52.260;6.714;2023-01-05T12:31:17;26.17;;;5.47;;
38312;SDS011;24114;52.260;6.714;2023-01-05T12:34:15;24.13;;;5.30;;
38312;SDS011;24114;52.260;6.714;2023-01-05T12:36:56;24.10;;;5.18;;
38312;SDS011;24114;52.260;6.714;2023-01-05T12:39:45;16.48;;;4.50;;
38312;SDS011;24114;52.260;6.714;2023-01-05T12:42:37;20.52;;;5.07;;
38312;SDS011;24114;52.260;6.714;2023-01-05T12:45:24;18.40;;;4.45;;
38312;SDS011;24114;52.260;6.714;2023-01-05T12:47:58;19.10;;;4.75;;
38312;SDS011;24114;52.260;6.714;2023-01-05T12:50:29;17.83;;;4.93;;
38312;SDS011;24114;52.260;6.714;2023-01-05T12:53:03;22.88;;;6.03;;
38312;SDS011;24114;52.260;6.714;2023-01-05T12:55:36;20.50;;;5.82;;
38312;SDS011;24114;52.260;6.714;2023-01-05T12:58:09;23.10;;;5.25;;
38312;SDS011;24114;52.260;6.714;2023-01-05T13:00:40;21.10;;;5.60;;
38312;SDS011;24114;52.260;6.714;2023-01-05T13:03:16;19.70;;;6.05;;
38312;SDS011;24114;52.260;6.714;2023-01-05T13:05:49;18.80;;;3.80;;
38312;SDS011;24114;52.260;6.714;2023-01-05T13:08:22;17.10;;;4.38;;
38312;SDS011;24114;52.260;6.714;2023-01-05T13:10:52;16.15;;;3.78;;
38312;SDS011;24114;52.260;6.714;2023-01-05T13:18:23;17.13;;;4.15;;
38312;SDS011;24114;52.260;6.714;2023-01-05T13:20:52;17.30;;;4.90;;
38312;SDS011;24114;52.260;6.714;2023-01-05T13:23:22;19.80;;;5.65;;
38312;SDS011;24114;52.260;6.714;2023-01-05T13:25:54;19.50;;;4.97;;
38312;SDS011;24114;52.260;6.714;2023-01-05T13:28:25;18.60;;;4.47;;
38312;SDS011;24114;52.260;6.714;2023-01-05T13:31:02;15.88;;;4.07;;
38312;SDS011;24114;52.260;6.714;2023-01-05T13:34:12;17.75;;;4.65;;
38312;SDS011;24114;52.260;6.714;2023-01-05T13:36:51;17.30;;;3.50;;
38312;SDS011;24114;52.260;6.714;2023-01-05T13:39:41;20.98;;;4.50;;
38312;SDS011;24114;52.260;6.714;2023-01-05T13:44:52;19.70;;;4.85;;
38312;SDS011;24114;52.260;6.714;2023-01-05T13:51:13;15.98;;;4.03;;
38312;SDS011;24114;52.260;6.714;2023-01-05T13:54:02;15.52;;;4.50;;
38312;SDS011;24114;52.260;6.714;2023-01-05T13:56:36;23.38;;;4.35;;
38312;SDS011;24114;52.260;6.714;2023-01-05T13:59:05;24.25;;;4.30;;
38312;SDS011;24114;52.260;6.714;2023-01-05T14:01:51;20.00;;;3.78;;
38312;SDS011;24114;52.260;6.714;2023-01-05T14:04:22;18.40;;;3.97;;
38312;SDS011;24114;52.260;6.714;2023-01-05T14:06:50;26.40;;;5.55;;
38312;SDS011;24114;52.260;6.714;2023-01-05T14:09:22;21.23;;;5.43;;
38312;SDS011;24114;52.260;6.714;2023-01-05T14:14:58;17.95;;;4.60;;
38312;SDS011;24114;52.260;6.714;2023-01-05T14:20:29;18.42;;;4.10;;
38312;SDS011;24114;52.260;6.714;2023-01-05T14:23:00;22.25;;;4.60;;
38312;SDS011;24114;52.260;6.714;2023-01-05T14:34:16;18.83;;;4.75;;
38312;SDS011;24114;52.260;6.714;2023-01-05T14:36:58;19.88;;;3.60;;
38312;SDS011;24114;52.260;6.714;2023-01-05T14:39:29;19.92;;;3.88;;
38312;SDS011;24114;52.260;6.714;2023-01-05T14:44:32;19.92;;;4.47;;
38312;SDS011;24114;52.260;6.714;2023-01-05T14:47:02;18.42;;;3.42;;
38312;SDS011;24114;52.260;6.714;2023-01-05T14:51:53;15.98;;;3.95;;
38312;SDS011;24114;52.260;6.714;2023-01-05T14:54:34;13.75;;;3.47;;
38312;SDS011;24114;52.260;6.714;2023-01-05T14:57:20;16.02;;;4.20;;
38312;SDS011;24114;52.260;6.714;2023-01-05T15:04:57;27.05;;;12.95;;
38312;SDS011;24114;52.260;6.714;2023-01-05T15:07:37;24.48;;;12.18;;
38312;SDS011;24114;52.260;6.714;2023-01-05T15:10:22;28.23;;;12.15;;
38312;SDS011;24114;52.260;6.714;2023-01-05T15:13:11;23.45;;;9.75;;
38312;SDS011;24114;52.260;6.714;2023-01-05T15:15:50;19.08;;;9.20;;
38312;SDS011;24114;52.260;6.714;2023-01-05T15:18:35;21.15;;;8.05;;
38312;SDS011;24114;52.260;6.714;2023-01-05T15:21:26;20.17;;;6.33;;
38312;SDS011;24114;52.260;6.714;2023-01-05T15:27:04;22.15;;;5.03;;
38312;SDS011;24114;52.260;6.714;2023-01-05T15:29:47;17.05;;;4.47;;
38312;SDS011;24114;52.260;6.714;2023-01-05T15:32:20;20.65;;;4.70;;
38312;SDS011;24114;52.260;6.714;2023-01-05T15:34:51;18.98;;;4.85;;
38312;SDS011;24114;52.260;6.714;2023-01-05T15:37:21;24.25;;;6.20;;
38312;SDS011;24114;52.260;6.714;2023-01-05T15:39:52;20.63;;;6.40;;
38312;SDS011;24114;52.260;6.714;2023-01-05T15:42:22;20.77;;;7.32;;
38312;SDS011;24114;52.260;6.714;2023-01-05T15:44:54;24.67;;;6.55;;
38312;SDS011;24114;52.260;6.714;2023-01-05T15:47:24;31.25;;;12.50;;
38312;SDS011;24114;52.260;6.714;2023-01-05T15:49:54;27.33;;;13.48;;
38312;SDS011;24114;52.260;6.714;2023-01-05T15:52:24;34.22;;;16.00;;
38312;SDS011;24114;52.260;6.714;2023-01-05T15:54:57;29.60;;;16.08;;
38312;SDS011;24114;52.260;6.714;2023-01-05T15:57:27;26.77;;;14.82;;
38312;SDS011;24114;52.260;6.714;2023-01-05T15:59:55;27.23;;;10.65;;
38312;SDS011;24114;52.260;6.714;2023-01-05T16:02:23;26.17;;;9.20;;
38312;SDS011;24114;52.260;6.714;2023-01-05T16:05:12;19.83;;;8.10;;
38312;SDS011;24114;52.260;6.714;2023-01-05T16:07:42;22.98;;;7.97;;
38312;SDS011;24114;52.260;6.714;2023-01-05T16:10:20;23.08;;;7.63;;
38312;SDS011;24114;52.260;6.714;2023-01-05T16:12:52;26.27;;;7.82;;
38312;SDS011;24114;52.260;6.714;2023-01-05T16:15:23;28.23;;;7.75;;
38312;SDS011;24114;52.260;6.714;2023-01-05T16:17:51;24.15;;;6.50;;
38312;SDS011;24114;52.260;6.714;2023-01-05T16:20:22;32.45;;;9.68;;
38312;SDS011;24114;52.260;6.714;2023-01-05T16:22:53;23.30;;;7.43;;
38312;SDS011;24114;52.260;6.714;2023-01-05T16:25:35;24.48;;;7.95;;
38312;SDS011;24114;52.260;6.714;2023-01-05T16:28:10;27.88;;;7.70;;
38312;SDS011;24114;52.260;6.714;2023-01-05T16:30:42;25.58;;;7.90;;
38312;SDS011;24114;52.260;6.714;2023-01-05T16:33:19;23.83;;;7.35;;
38312;SDS011;24114;52.260;6.714;2023-01-05T16:35:50;31.27;;;8.40;;
38312;SDS011;24114;52.260;6.714;2023-01-05T16:38:23;22.48;;;7.13;;
38312;SDS011;24114;52.260;6.714;2023-01-05T16:43:32;22.42;;;7.50;;
38312;SDS011;24114;52.260;6.714;2023-01-05T16:46:23;27.95;;;8.65;;
38312;SDS011;24114;52.260;6.714;2023-01-05T16:48:55;26.48;;;7.35;;
38312;SDS011;24114;52.260;6.714;2023-01-05T16:51:35;24.83;;;7.07;;
38312;SDS011;24114;52.260;6.714;2023-01-05T16:54:05;25.52;;;7.13;;
38312;SDS011;24114;52.260;6.714;2023-01-05T16:56:45;27.25;;;7.95;;